createdAt,value
2023-01-23T00:01:27.081Z,82.70
2023-01-23T00:03:56.496Z,82.70
2023-01-23T00:06:25.039Z,82.80
2023-01-23T00:08:53.059Z,82.80
2023-01-23T00:11:22.943Z,82.80
2023-01-23T00:13:51.420Z,82.90
2023-01-23T00:16:22.059Z,82.90
2023-01-23T00:18:50.972Z,82.90
2023-01-23T00:21:21.856Z,83.00
2023-01-23T00:23:51.586Z,82.90
2023-01-23T00:26:21.367Z,83.10
2023-01-23T00:28:50.750Z,83.20
2023-01-23T00:31:24.784Z,83.10
2023-01-23T00:33:56.722Z,83.00
2023-01-23T00:36:26.168Z,83.00
2023-01-23T00:38:56.445Z,82.90
2023-01-23T00:41:24.631Z,82.90
2023-01-23T00:43:52.894Z,82.80
2023-01-23T00:46:23.428Z,82.80
2023-01-23T00:48:52.089Z,82.80
2023-01-23T00:51:20.166Z,82.90
2023-01-23T00:53:48.351Z,82.80
2023-01-23T00:56:16.417Z,82.70
2023-01-23T00:58:45.313Z,82.90
2023-01-23T01:01:14.862Z,83.00
2023-01-23T01:03:44.659Z,83.10
2023-01-23T01:06:13.671Z,82.80
2023-01-23T01:08:41.852Z,82.70
2023-01-23T01:11:10.064Z,82.60
2023-01-23T01:13:38.340Z,82.70
2023-01-23T01:16:07.618Z,82.80
2023-01-23T01:18:37.180Z,82.80
2023-01-23T01:21:09.243Z,82.90
2023-01-23T01:23:38.054Z,82.90
2023-01-23T01:26:06.373Z,82.90
2023-01-23T01:28:35.451Z,83.00
2023-01-23T01:31:06.430Z,83.00
2023-01-23T01:33:35.463Z,83.00
2023-01-23T01:36:03.462Z,83.00
2023-01-23T01:38:34.793Z,83.00
2023-01-23T01:41:02.689Z,82.70
2023-01-23T01:43:30.670Z,82.50
2023-01-23T01:46:12.712Z,82.60
2023-01-23T01:48:45.349Z,82.70
2023-01-23T01:51:20.336Z,82.80
2023-01-23T01:53:53.143Z,82.80
2023-01-23T01:56:21.818Z,82.70
2023-01-23T01:58:53.567Z,82.80
2023-01-23T02:01:21.735Z,82.90
2023-01-23T02:03:51.747Z,82.80
2023-01-23T02:06:20.674Z,82.80
2023-01-23T02:08:53.523Z,82.60
2023-01-23T02:11:21.460Z,82.60
2023-01-23T02:13:51.039Z,82.50
2023-01-23T02:16:21.839Z,82.50
2023-01-23T02:18:53.817Z,82.50
2023-01-23T02:21:25.395Z,82.40
2023-01-23T02:24:09.735Z,82.50
2023-01-23T02:26:41.681Z,82.40
2023-01-23T02:29:10.864Z,82.20
2023-01-23T02:31:47.060Z,82.10
2023-01-23T02:34:16.117Z,82.10
2023-01-23T02:36:48.396Z,82.20
2023-01-23T02:39:18.238Z,82.10
2023-01-23T02:41:52.863Z,82.00
2023-01-23T02:44:28.365Z,82.20
2023-01-23T02:47:07.973Z,82.30
2023-01-23T02:49:35.938Z,82.20
2023-01-23T02:52:07.704Z,82.20
2023-01-23T02:54:37.353Z,82.20
2023-01-23T02:57:06.604Z,82.30
2023-01-23T02:59:52.462Z,82.20
2023-01-23T03:02:21.364Z,82.20
2023-01-23T03:04:49.970Z,82.20
2023-01-23T03:07:18.149Z,82.30
2023-01-23T03:09:47.816Z,82.30
2023-01-23T03:12:18.876Z,82.20
2023-01-23T03:14:48.525Z,82.30
2023-01-23T03:17:17.513Z,82.40
2023-01-23T03:19:45.506Z,82.40
2023-01-23T03:22:13.469Z,82.30
2023-01-23T03:24:41.745Z,82.40
2023-01-23T03:27:09.692Z,82.40
2023-01-23T03:30:01.918Z,82.40
2023-01-23T03:32:30.835Z,82.30
2023-01-23T03:34:59.370Z,82.30
2023-01-23T03:37:27.478Z,82.20
2023-01-23T03:40:14.028Z,82.20
2023-01-23T03:42:41.992Z,82.10
2023-01-23T03:45:14.400Z,82.20
2023-01-23T03:47:43.141Z,82.10
2023-01-23T03:50:11.992Z,82.10
2023-01-23T03:52:40.759Z,82.20
2023-01-23T03:55:10.133Z,82.30
2023-01-23T03:57:38.820Z,82.20
2023-01-23T04:00:25.142Z,82.30
2023-01-23T04:03:03.006Z,82.10
2023-01-23T04:05:31.092Z,82.20
2023-01-23T04:08:00.130Z,82.30
2023-01-23T04:10:28.648Z,82.40
2023-01-23T04:13:02.405Z,82.30
2023-01-23T04:15:33.153Z,82.40
2023-01-23T04:18:02.314Z,82.40
2023-01-23T04:20:30.788Z,82.30
2023-01-23T04:22:59.492Z,82.20
2023-01-23T04:25:29.464Z,82.20
2023-01-23T04:27:57.551Z,82.10
2023-01-23T04:30:26.003Z,82.20
2023-01-23T04:32:55.368Z,82.20
2023-01-23T04:35:24.020Z,82.00
2023-01-23T04:37:52.963Z,82.00
2023-01-23T04:40:21.971Z,82.10
2023-01-23T04:42:54.699Z,82.10
2023-01-23T04:45:38.069Z,82.10
2023-01-23T04:48:30.437Z,82.10
2023-01-23T04:50:59.223Z,82.20
2023-01-23T04:53:27.449Z,82.20
2023-01-23T04:56:01.017Z,82.30
2023-01-23T04:58:28.920Z,82.30
2023-01-23T05:01:03.812Z,82.30
2023-01-23T05:03:35.782Z,82.10
2023-01-23T05:06:03.790Z,82.10
2023-01-23T05:08:31.679Z,82.20
2023-01-23T05:11:13.016Z,82.10
2023-01-23T05:13:41.235Z,82.20
2023-01-23T05:16:09.452Z,82.30
2023-01-23T05:18:58.673Z,82.30
2023-01-23T05:21:28.448Z,82.20
2023-01-23T05:23:56.390Z,82.20
2023-01-23T05:26:24.381Z,82.20
2023-01-23T05:28:52.262Z,82.30
2023-01-23T05:31:21.472Z,82.30
2023-01-23T05:34:10.808Z,82.30
2023-01-23T05:36:41.096Z,82.20
2023-01-23T05:39:09.196Z,82.30
2023-01-23T05:41:38.095Z,82.30
2023-01-23T05:44:41.029Z,82.30
2023-01-23T05:47:15.544Z,82.30
2023-01-23T05:49:45.854Z,82.30
2023-01-23T05:52:13.830Z,82.40
2023-01-23T05:54:41.713Z,82.30
2023-01-23T05:57:10.593Z,82.20
2023-01-23T05:59:38.478Z,82.10
2023-01-23T06:02:32.081Z,82.20
2023-01-23T06:05:30.039Z,82.20
2023-01-23T06:08:02.730Z,82.20
2023-01-23T06:10:31.160Z,82.20
2023-01-23T06:12:59.090Z,82.20
2023-01-23T06:15:27.016Z,82.20
2023-01-23T06:17:56.363Z,82.20
2023-01-23T06:20:25.890Z,82.10
2023-01-23T06:22:55.340Z,82.20
2023-01-23T06:25:23.304Z,82.20
2023-01-23T06:27:55.055Z,82.20
2023-01-23T06:30:24.683Z,82.20
2023-01-23T06:32:52.816Z,82.20
2023-01-23T06:35:27.090Z,82.30
2023-01-23T06:37:57.777Z,82.30
2023-01-23T06:40:26.213Z,82.40
2023-01-23T06:43:17.353Z,82.40
2023-01-23T06:45:45.518Z,82.30
2023-01-23T06:48:13.878Z,82.40
2023-01-23T06:50:44.100Z,82.40
2023-01-23T06:53:16.117Z,82.40
2023-01-23T06:55:45.952Z,82.40
2023-01-23T06:58:15.489Z,82.40
2023-01-23T07:00:44.549Z,82.40
2023-01-23T07:03:22.037Z,82.50
2023-01-23T07:05:50.065Z,82.40
2023-01-23T07:08:19.451Z,82.30
2023-01-23T07:10:51.198Z,82.30
2023-01-23T07:39:09.286Z,82.30
2023-01-23T07:41:37.276Z,82.30
2023-01-23T07:44:09.105Z,82.30
2023-01-23T07:46:37.164Z,82.30
2023-01-23T07:49:05.207Z,82.30
2023-01-23T07:51:33.471Z,82.20
2023-01-23T07:54:01.572Z,82.20
2023-01-23T07:56:30.900Z,82.20
2023-01-23T07:58:59.048Z,82.30
2023-01-23T08:01:27.272Z,82.40
2023-01-23T08:03:55.449Z,82.40
2023-01-23T08:06:23.514Z,82.20
2023-01-23T08:08:51.682Z,82.20
2023-01-23T08:11:19.775Z,82.10
2023-01-23T08:13:51.487Z,82.00
2023-01-23T08:16:19.710Z,82.00
2023-01-23T08:18:47.764Z,82.00
2023-01-23T08:21:15.747Z,82.10
2023-01-23T08:23:43.895Z,82.10
2023-01-23T08:26:14.637Z,82.00
2023-01-23T08:28:43.377Z,82.00
2023-01-23T08:31:14.181Z,82.00
2023-01-23T08:33:42.380Z,82.10
2023-01-23T08:36:12.699Z,82.10
2023-01-23T08:38:41.074Z,82.10
2023-01-23T08:41:11.769Z,81.90
2023-01-23T08:43:41.484Z,81.80
2023-01-23T08:46:12.449Z,81.90
2023-01-23T08:48:40.609Z,81.90
2023-01-23T08:51:11.318Z,81.80
2023-01-23T08:53:39.678Z,81.80
2023-01-23T08:56:09.520Z,81.80
2023-01-23T08:58:37.576Z,81.60
2023-01-23T09:01:05.963Z,81.80
2023-01-23T09:03:35.387Z,81.60
2023-01-23T09:06:03.652Z,81.40
2023-01-23T09:08:31.874Z,81.40
2023-01-23T09:11:02.155Z,81.50
2023-01-23T09:13:30.362Z,81.30
2023-01-23T09:15:58.601Z,81.30
2023-01-23T09:18:27.260Z,81.40
2023-01-23T09:20:57.111Z,81.60
2023-01-23T09:23:25.595Z,81.50
2023-01-23T09:25:53.697Z,81.50
2023-01-23T09:28:21.718Z,81.40
2023-01-23T09:30:49.784Z,81.40
2023-01-23T09:33:18.152Z,81.50
2023-01-23T09:35:46.281Z,81.50
2023-01-23T09:38:15.714Z,81.40
2023-01-23T09:41:15.117Z,81.50
2023-01-23T09:43:53.751Z,81.30
2023-01-23T09:46:29.204Z,81.30
2023-01-23T09:49:09.450Z,81.30
2023-01-23T09:51:58.019Z,81.30
2023-01-23T09:54:41.802Z,81.20
2023-01-23T09:57:20.200Z,81.30
2023-01-23T10:00:00.622Z,81.30
2023-01-23T10:02:29.671Z,81.30
2023-01-23T10:04:59.277Z,81.30
2023-01-23T10:07:54.051Z,81.10
2023-01-23T10:10:46.491Z,81.20
2023-01-23T10:13:18.597Z,81.20
2023-01-23T10:16:16.326Z,81.10
2023-01-23T10:19:03.888Z,81.10
2023-01-23T10:21:36.956Z,81.10
2023-01-23T10:24:15.331Z,81.10
2023-01-23T10:26:47.677Z,81.10
2023-01-23T10:29:22.620Z,81.20
2023-01-23T10:31:55.808Z,81.10
2023-01-23T10:34:34.386Z,81.10
2023-01-23T10:37:12.815Z,81.00
2023-01-23T10:39:51.718Z,81.00
2023-01-23T10:42:24.455Z,80.70
2023-01-23T10:44:52.484Z,80.80
2023-01-23T10:47:27.946Z,80.80
2023-01-23T10:49:57.682Z,80.70
2023-01-23T10:52:32.741Z,80.80
2023-01-23T10:55:00.802Z,80.80
2023-01-23T10:57:31.811Z,80.70
2023-01-23T11:00:04.315Z,80.70
2023-01-23T11:02:34.138Z,80.70
2023-01-23T11:05:03.195Z,80.80
2023-01-23T11:07:32.846Z,80.60
2023-01-23T11:10:04.374Z,80.60
2023-01-23T11:12:35.999Z,80.70
2023-01-23T11:15:20.908Z,80.60
2023-01-23T11:17:49.716Z,80.70
2023-01-23T11:20:27.378Z,80.80
2023-01-23T11:23:06.946Z,80.70
2023-01-23T11:25:37.851Z,80.40
2023-01-23T11:28:23.699Z,80.50
2023-01-23T11:31:07.936Z,80.50
2023-01-23T11:33:44.305Z,80.60
2023-01-23T11:36:34.256Z,80.60
2023-01-23T11:39:08.102Z,80.50
2023-01-23T11:41:37.354Z,80.40
2023-01-23T11:44:11.250Z,80.50
2023-01-23T11:46:56.734Z,80.60
2023-01-23T11:49:41.358Z,80.50
2023-01-23T11:52:28.674Z,80.40
2023-01-23T11:55:14.302Z,80.40
2023-01-23T11:57:56.599Z,80.50
2023-01-23T12:00:35.262Z,80.40
2023-01-23T12:03:27.785Z,80.40
2023-01-23T12:06:27.244Z,80.30
2023-01-23T12:09:02.594Z,80.40
2023-01-23T12:11:39.295Z,80.60
2023-01-23T12:14:15.502Z,80.60
2023-01-23T12:16:59.735Z,80.60
2023-01-23T12:19:43.567Z,80.50
2023-01-23T12:22:16.996Z,80.50
2023-01-23T12:24:57.625Z,80.50
2023-01-23T12:27:36.630Z,80.50
2023-01-23T12:30:29.659Z,80.40
2023-01-23T12:33:12.706Z,80.50
2023-01-23T12:35:49.193Z,80.40
2023-01-23T12:38:27.426Z,80.40
2023-01-23T12:41:12.926Z,80.40
2023-01-23T12:43:46.780Z,80.40
2023-01-23T12:46:20.223Z,80.10
2023-01-23T12:48:54.960Z,80.00
2023-01-23T12:51:28.127Z,80.10
2023-01-23T12:53:59.643Z,80.10
2023-01-23T12:56:31.401Z,80.10
2023-01-23T12:59:07.931Z,80.10
2023-01-23T13:01:53.274Z,80.10
2023-01-23T13:04:37.158Z,80.00
2023-01-23T13:07:20.367Z,79.90
2023-01-23T13:10:06.849Z,80.00
2023-01-23T13:12:35.340Z,80.00
2023-01-23T13:15:38.755Z,80.00
2023-01-23T13:18:23.479Z,80.10
2023-01-23T13:21:16.943Z,80.00
2023-01-23T13:23:45.674Z,80.00
2023-01-23T13:26:32.330Z,80.00
2023-01-23T13:29:05.269Z,80.10
2023-01-23T13:31:41.151Z,80.00
2023-01-23T13:34:39.520Z,80.00
2023-01-23T13:37:51.073Z,79.80
2023-01-23T13:40:22.462Z,79.80
2023-01-23T13:42:50.727Z,79.80
2023-01-23T13:45:30.676Z,79.80
2023-01-23T14:21:41.067Z,79.80
2023-01-23T14:24:22.288Z,79.70
2023-01-23T14:26:51.904Z,79.70
2023-01-23T14:29:22.253Z,79.70
2023-01-23T14:31:52.013Z,79.60
2023-01-23T14:34:21.712Z,79.60
2023-01-23T14:36:52.903Z,79.60
2023-01-23T14:39:23.336Z,79.70
2023-01-23T14:41:54.783Z,79.60
2023-01-23T14:44:25.840Z,79.60
2023-01-23T14:46:58.455Z,79.60
2023-01-23T14:49:29.907Z,79.50
2023-01-23T14:52:00.268Z,79.30
2023-01-23T14:54:32.902Z,79.30
2023-01-23T14:57:04.543Z,79.30
2023-01-23T14:59:35.429Z,79.20
2023-01-23T15:02:25.436Z,79.10
2023-01-23T15:05:11.650Z,79.10
2023-01-23T15:07:45.456Z,79.10
2023-01-23T15:10:18.186Z,79.10
2023-01-23T15:12:52.593Z,79.10
2023-01-23T15:15:23.467Z,79.10
2023-01-23T15:17:53.821Z,79.10
2023-01-23T15:20:35.403Z,79.20
2023-01-23T15:23:28.154Z,79.00
2023-01-23T15:26:31.473Z,79.10
2023-01-23T15:29:02.211Z,79.00
2023-01-23T15:31:32.648Z,78.90
2023-01-23T15:34:21.323Z,78.70
2023-01-23T15:36:51.645Z,78.90
2023-01-23T15:39:23.530Z,78.80
2023-01-23T15:41:53.212Z,78.70
2023-01-23T15:44:22.831Z,78.90
2023-01-23T15:46:51.047Z,78.80
2023-01-23T15:49:25.803Z,78.80
2023-01-23T15:51:56.911Z,78.80
2023-01-23T15:54:32.097Z,78.80
2023-01-23T15:57:07.603Z,78.70
2023-01-23T15:59:37.257Z,78.70
2023-01-23T16:02:05.863Z,78.70
2023-01-23T16:04:38.159Z,78.60
2023-01-23T16:07:08.098Z,78.50
2023-01-23T16:09:38.458Z,78.40
2023-01-23T16:12:06.932Z,78.50
2023-01-23T16:14:34.863Z,78.50
2023-01-23T16:17:15.966Z,78.40
2023-01-23T16:19:46.470Z,78.40
2023-01-23T16:22:18.895Z,78.80
2023-01-23T16:24:47.123Z,78.90
2023-01-23T17:05:23.951Z,78.00
2023-01-23T17:22:00.043Z,77.70
2023-01-23T17:24:28.514Z,77.70
2023-01-23T17:26:56.382Z,77.50
2023-01-23T17:29:24.703Z,77.30
2023-01-23T17:31:53.206Z,77.20
2023-01-23T17:34:23.280Z,77.30
2023-01-23T17:36:51.851Z,77.50
2023-01-23T17:39:21.500Z,77.60
2023-01-23T17:41:51.320Z,77.70
2023-01-23T17:44:19.365Z,77.70
2023-01-23T17:46:47.980Z,77.90
2023-01-23T17:49:30.343Z,77.70
2023-01-23T17:51:59.839Z,77.60
2023-01-23T17:54:30.300Z,77.50
2023-01-23T17:56:58.234Z,77.40
2023-01-23T17:59:26.198Z,77.50
2023-01-23T18:01:54.202Z,77.60
2023-01-23T18:04:23.477Z,77.70
2023-01-23T18:06:52.227Z,77.70
2023-01-23T18:09:21.266Z,77.80
2023-01-23T18:11:54.299Z,78.00
2023-01-23T18:14:38.497Z,78.10
2023-01-23T18:17:17.909Z,78.00
2023-01-23T18:19:46.141Z,77.90
2023-01-23T18:22:14.562Z,78.00
2023-01-23T18:24:43.061Z,78.00
2023-01-23T18:27:21.150Z,78.00
2023-01-23T18:30:04.557Z,77.90
2023-01-23T18:32:57.318Z,78.00
2023-01-23T18:35:37.807Z,78.10
2023-01-23T18:38:13.592Z,78.10
2023-01-23T18:40:49.224Z,78.20
2023-01-23T18:43:29.888Z,78.30
2023-01-23T18:45:58.354Z,78.10
2023-01-23T18:48:26.964Z,78.10
2023-01-23T18:51:06.257Z,78.10
2023-01-23T18:53:45.950Z,78.00
2023-01-23T18:56:25.031Z,78.00
2023-01-23T18:59:11.568Z,78.10
2023-01-23T19:01:52.087Z,78.20
2023-01-23T19:04:25.752Z,78.10
2023-01-23T19:06:54.329Z,78.10
2023-01-23T19:09:22.738Z,78.10
2023-01-23T19:12:02.856Z,78.20
2023-01-23T19:14:51.329Z,78.20
2023-01-23T19:17:27.564Z,78.20
2023-01-23T19:20:02.472Z,78.20
2023-01-23T19:22:42.950Z,78.20
2023-01-23T19:25:17.562Z,78.10
2023-01-23T19:27:52.357Z,78.10
2023-01-23T19:30:23.769Z,78.20
2023-01-23T19:32:51.738Z,78.20
2023-01-23T19:35:20.484Z,78.20
2023-01-23T19:37:48.607Z,78.40
2023-01-23T19:40:17.679Z,78.50
2023-01-23T19:42:58.653Z,78.60
2023-01-23T19:45:34.915Z,78.60
2023-01-23T19:48:02.844Z,78.60
2023-01-23T19:50:30.723Z,78.70
2023-01-23T19:53:00.220Z,78.80
2023-01-23T19:55:30.494Z,78.90
2023-01-23T19:57:58.832Z,78.80
2023-01-23T20:00:29.280Z,78.90
2023-01-23T20:02:58.566Z,79.00
2023-01-23T20:05:27.219Z,79.10
2023-01-23T20:07:55.410Z,79.10
2023-01-23T20:10:23.923Z,79.10
2023-01-23T20:12:54.122Z,79.10
2023-01-23T20:15:23.962Z,79.00
2023-01-23T20:17:52.704Z,79.20
2023-01-23T20:20:22.804Z,79.20
2023-01-23T20:22:50.879Z,79.00
2023-01-23T20:25:19.259Z,79.00
2023-01-23T20:27:47.282Z,79.20
2023-01-23T20:30:18.088Z,79.20
2023-01-23T20:32:46.280Z,79.20
2023-01-23T20:35:14.174Z,79.30
2023-01-23T20:37:43.421Z,79.30
2023-01-23T20:40:12.428Z,79.30
2023-01-23T20:42:40.858Z,79.40
2023-01-23T20:45:09.718Z,79.50
2023-01-23T20:47:37.887Z,79.40
2023-01-23T20:50:06.462Z,79.50
2023-01-23T20:52:51.722Z,79.50
2023-01-23T20:55:21.145Z,79.50
2023-01-23T20:58:06.855Z,79.60
2023-01-23T21:00:34.746Z,79.50
2023-01-23T21:03:02.635Z,79.50
2023-01-23T21:05:30.613Z,79.50
2023-01-23T21:07:58.475Z,79.50
2023-01-23T21:10:27.721Z,79.40
2023-01-23T21:12:55.566Z,79.40
2023-01-23T21:15:23.932Z,79.40
2023-01-23T21:17:51.962Z,79.40
2023-01-23T21:20:20.014Z,79.50
2023-01-23T21:22:48.069Z,79.50
2023-01-23T21:25:15.979Z,79.50
2023-01-23T21:27:45.191Z,79.50
2023-01-23T21:30:13.744Z,79.50
2023-01-23T21:32:41.779Z,79.40
2023-01-23T21:35:10.585Z,79.50
2023-01-23T21:37:38.413Z,79.50
2023-01-23T21:40:07.900Z,79.50
2023-01-23T21:42:35.780Z,79.50
2023-01-23T21:45:05.492Z,79.50
2023-01-23T21:47:33.367Z,79.50
2023-01-23T21:50:01.237Z,79.60
2023-01-23T21:52:29.714Z,79.60
2023-01-23T21:54:57.630Z,79.50
2023-01-23T21:57:25.635Z,79.60
2023-01-23T22:00:07.453Z,79.60
2023-01-23T22:02:42.484Z,79.50
2023-01-23T22:05:10.558Z,79.60
2023-01-23T22:07:38.496Z,79.60
2023-01-23T22:10:07.501Z,79.60
2023-01-23T22:12:35.372Z,79.70
2023-01-23T22:15:03.431Z,79.70
2023-01-23T22:17:31.638Z,79.70
2023-01-23T22:20:00.881Z,79.70
2023-01-23T22:22:28.721Z,79.70
2023-01-23T22:24:56.566Z,79.60
2023-01-23T22:27:24.557Z,79.60
2023-01-23T22:29:52.422Z,79.70
2023-01-23T22:32:20.444Z,79.70
2023-01-23T22:34:48.436Z,79.70
2023-01-23T22:37:17.727Z,79.70
2023-01-23T22:39:45.617Z,79.60
2023-01-23T22:42:13.740Z,79.60
2023-01-23T22:44:41.614Z,79.60
2023-01-23T22:47:09.528Z,79.60
2023-01-23T22:49:37.491Z,79.50
2023-01-23T22:52:07.457Z,79.50
2023-01-23T22:54:37.662Z,79.60
2023-01-23T22:57:05.616Z,79.60
2023-01-23T22:59:34.155Z,79.50
2023-01-23T23:02:02.118Z,79.60
2023-01-23T23:04:30.135Z,79.60
2023-01-23T23:06:58.044Z,79.60
2023-01-23T23:09:25.914Z,79.60
2023-01-23T23:11:55.641Z,79.50
2023-01-23T23:14:23.557Z,79.60
2023-01-23T23:16:51.495Z,79.60
2023-01-23T23:19:19.346Z,79.60
2023-01-23T23:21:47.274Z,79.60
2023-01-23T23:24:15.177Z,79.70
2023-01-23T23:26:43.124Z,79.60
2023-01-23T23:29:12.450Z,79.60
2023-01-23T23:31:40.535Z,79.60
2023-01-23T23:34:09.121Z,79.60
2023-01-23T23:36:37.184Z,79.60
2023-01-23T23:39:05.216Z,79.50
2023-01-23T23:41:33.130Z,79.60
2023-01-23T23:44:01.004Z,79.60
2023-01-23T23:46:30.450Z,79.70
2023-01-23T23:48:58.387Z,79.60
2023-01-23T23:51:26.773Z,79.50
2023-01-23T23:53:55.600Z,79.50
2023-01-23T23:56:25.818Z,79.50
2023-01-23T23:58:54.366Z,79.50
